Time;durP1;ratioP1;P1;durP2;ratioP2;P2;SDS_P1;SDS_P2;PMS_P1;PMS_P2;Temp;Humidity;BMP_temperature;BMP_pressure;BME280_temperature;BME280_humidity;BME280_pressure;Samples;Min_cycle;Max_cycle;Signal;HPM_P1;HPM_P2
2022/09/07 00:00:41;;;;;;;6.07;4.55;;;18.80;99.90;;;;;;5071438;28;20016;-45
2022/09/07 00:03:06;;;;;;;5.15;3.72;;;18.80;99.90;;;;;;5070940;28;20079;-47
2022/09/07 00:05:32;;;;;;;7.25;4.25;;;18.80;99.90;;;;;;5071305;28;20427;-44
2022/09/07 00:07:59;;;;;;;5.82;4.40;;;18.80;99.90;;;;;;5071300;28;20534;-45
2022/09/07 00:10:25;;;;;;;5.70;5.10;;;18.90;99.90;;;;;;5071441;28;20021;-45
2022/09/07 00:12:51;;;;;;;7.05;5.05;;;18.80;99.90;;;;;;5053016;28;20035;-44
2022/09/07 00:15:17;;;;;;;11.98;5.32;;;18.80;99.90;;;;;;5071666;28;20029;-46
2022/09/07 00:17:43;;;;;;;7.05;4.65;;;18.80;99.90;;;;;;5071558;28;20021;-39
2022/09/07 00:20:10;;;;;;;6.78;4.88;;;18.80;99.90;;;;;;5071272;28;20047;-47
2022/09/07 00:22:36;;;;;;;10.25;5.07;;;18.80;99.90;;;;;;5071133;28;20494;-45
2022/09/07 00:25:02;;;;;;;7.85;5.07;;;18.80;99.90;;;;;;5071413;28;20052;-45
2022/09/07 00:27:28;;;;;;;6.28;5.68;;;18.80;99.90;;;;;;5071514;28;20117;-43
2022/09/07 00:29:53;;;;;;;7.07;5.13;;;18.80;99.90;;;;;;5071146;28;20040;-40
2022/09/07 00:32:19;;;;;;;7.90;5.10;;;18.70;99.90;;;;;;5070894;28;20023;-45
2022/09/07 00:34:44;;;;;;;7.70;4.93;;;18.80;99.90;;;;;;5070975;28;20423;-43
2022/09/07 00:37:10;;;;;;;7.03;5.00;;;18.70;99.90;;;;;;5070996;28;20129;-47
2022/09/07 00:39:36;;;;;;;6.45;4.85;;;18.70;99.90;;;;;;5071043;28;20027;-47
2022/09/07 00:42:02;;;;;;;7.90;5.38;;;18.70;99.90;;;;;;5070730;28;20498;-39
2022/09/07 00:44:42;;;;;;;8.32;5.18;;;18.80;99.90;;;;;;5071110;28;20028;-44
2022/09/07 00:47:18;;;;;;;12.35;5.47;;;18.80;99.90;;;;;;5070979;28;20538;-44
2022/09/07 00:49:47;;;;;;;11.25;6.43;;;18.90;99.90;;;;;;5070962;28;20112;-41
2022/09/07 00:52:14;;;;;;;6.93;5.20;;;18.90;99.90;;;;;;5070876;28;20096;-44
2022/09/07 00:54:45;;;;;;;6.85;4.47;;;18.80;99.90;;;;;;5071312;28;20411;-39
2022/09/07 00:57:11;;;;;;;5.85;4.80;;;18.70;99.90;;;;;;5071245;28;20028;-42
2022/09/07 00:59:41;;;;;;;5.35;4.53;;;18.60;99.90;;;;;;5070982;28;20182;-46
2022/09/07 01:02:07;;;;;;;4.72;4.03;;;18.50;99.90;;;;;;5070489;28;20403;-48
2022/09/07 01:04:33;;;;;;;6.18;4.68;;;18.50;99.90;;;;;;5071072;28;20028;-44
2022/09/07 01:07:01;;;;;;;8.35;4.20;;;18.40;99.90;;;;;;5072983;28;20052;-41
2022/09/07 01:09:28;;;;;;;8.23;5.13;;;18.40;99.90;;;;;;5074395;28;20031;-44
2022/09/07 01:11:58;;;;;;;8.23;4.97;;;18.40;99.90;;;;;;5055971;28;20119;-39
2022/09/07 01:14:33;;;;;;;7.82;5.28;;;18.40;99.90;;;;;;5074600;28;20023;-48
2022/09/07 01:17:01;;;;;;;9.35;6.07;;;18.40;99.90;;;;;;5074585;28;20023;-45
2022/09/07 01:19:50;;;;;;;11.02;5.40;;;18.50;99.90;;;;;;5074340;28;20154;-44
2022/09/07 01:22:58;;;;;;;11.48;6.35;;;18.50;99.90;;;;;;5073821;28;20119;-46
2022/09/07 01:25:50;;;;;;;20.30;7.07;;;18.60;99.90;;;;;;5074384;28;20039;-46
2022/09/07 01:28:28;;;;;;;11.07;5.53;;;18.50;99.90;;;;;;5074123;28;20032;-46
2022/09/07 01:30:57;;;;;;;11.23;5.25;;;18.50;99.90;;;;;;5074229;28;20111;-48
2022/09/07 01:33:36;;;;;;;7.05;4.70;;;18.40;99.90;;;;;;5073840;28;20021;-47
2022/09/07 01:36:32;;;;;;;12.02;4.97;;;18.40;99.90;;;;;;5073924;28;20048;-40
2022/09/07 01:39:03;;;;;;;7.88;5.40;;;18.40;99.90;;;;;;5073964;28;20348;-40
2022/09/07 01:42:03;;;;;;;8.75;5.35;;;18.40;99.90;;;;;;5073727;28;20028;-48
2022/09/07 01:44:39;;;;;;;15.90;4.78;;;18.40;99.90;;;;;;5073987;28;20025;-44
2022/09/07 01:47:11;;;;;;;12.95;6.00;;;18.40;99.90;;;;;;5073791;28;20025;-45
2022/09/07 01:49:53;;;;;;;9.23;5.90;;;18.50;99.90;;;;;;5073724;28;20025;-44
2022/09/07 01:52:30;;;;;;;9.25;5.32;;;18.40;99.90;;;;;;5073409;28;20078;-44
2022/09/07 01:55:17;;;;;;;11.05;5.25;;;18.50;99.90;;;;;;5055683;28;20536;-45
2022/09/07 01:57:55;;;;;;;10.20;5.18;;;18.60;99.90;;;;;;5073266;28;20031;-46
2022/09/07 02:00:20;;;;;;;10.13;5.88;;;18.70;99.90;;;;;;5073612;28;20396;-47
2022/09/07 02:03:00;;;;;;;10.50;6.55;;;18.60;99.90;;;;;;5072992;28;20036;-49
2022/09/07 02:05:43;;;;;;;10.95;5.32;;;18.50;99.90;;;;;;5073542;28;20020;-40
2022/09/07 02:08:13;;;;;;;11.68;5.70;;;18.40;99.90;;;;;;5073353;28;20107;-39
2022/09/07 02:10:45;;;;;;;14.18;6.13;;;18.40;99.90;;;;;;5073382;28;20441;-47
2022/09/07 02:13:21;;;;;;;13.35;6.93;;;18.40;99.90;;;;;;5072960;28;20042;-47
2022/09/07 02:16:05;;;;;;;9.23;4.95;;;18.30;99.90;;;;;;5073175;28;20052;-45
2022/09/07 02:18:38;;;;;;;7.60;4.72;;;18.20;99.90;;;;;;5072109;28;20105;-47
2022/09/07 02:21:07;;;;;;;11.25;5.65;;;18.20;99.90;;;;;;5073133;28;20520;-39
2022/09/07 02:23:39;;;;;;;9.50;4.55;;;18.20;99.90;;;;;;5072830;28;20032;-46
2022/09/07 02:26:11;;;;;;;10.82;5.00;;;18.10;99.90;;;;;;5073121;28;20400;-40
2022/09/07 02:28:38;;;;;;;8.48;5.63;;;18.10;99.90;;;;;;5073603;28;20391;-42
2022/09/07 02:31:03;;;;;;;9.00;5.18;;;18.10;99.90;;;;;;5074318;28;20066;-45
2022/09/07 02:33:29;;;;;;;13.27;5.60;;;18.20;99.90;;;;;;5074516;28;20048;-44
2022/09/07 02:35:55;;;;;;;7.63;4.82;;;18.10;99.90;;;;;;5074072;28;20020;-44
2022/09/07 02:38:21;;;;;;;13.20;5.20;;;18.10;99.90;;;;;;5073010;28;20033;-49
2022/09/07 02:40:55;;;;;;;9.95;5.72;;;18.10;99.90;;;;;;5073095;28;20047;-46
2022/09/07 02:43:22;;;;;;;13.27;5.45;;;18.00;99.90;;;;;;5072378;28;20484;-46
2022/09/07 02:46:01;;;;;;;10.80;5.38;;;18.00;99.90;;;;;;5072581;28;20040;-50
2022/09/07 02:48:43;;;;;;;11.05;5.25;;;18.00;99.90;;;;;;5072470;28;20029;-45
2022/09/07 02:51:23;;;;;;;11.65;5.63;;;18.10;99.90;;;;;;5072507;28;20028;-40
2022/09/07 02:54:14;;;;;;;10.80;6.22;;;18.10;99.90;;;;;;5072114;28;20055;-49
2022/09/07 02:56:54;;;;;;;11.57;6.40;;;18.10;99.90;;;;;;5072340;28;20028;-40
2022/09/07 02:59:47;;;;;;;10.82;5.95;;;18.10;99.90;;;;;;5071879;28;20017;-45
2022/09/07 03:02:19;;;;;;;12.10;5.32;;;18.10;99.90;;;;;;5071842;28;20032;-45
2022/09/07 03:04:53;;;;;;;12.02;6.85;;;18.10;99.90;;;;;;5072715;28;20035;-46
2022/09/07 03:07:26;;;;;;;7.93;5.45;;;18.10;99.90;;;;;;5072132;28;20028;-45
2022/09/07 03:09:55;;;;;;;7.25;5.47;;;18.00;99.90;;;;;;5072161;28;20032;-47
2022/09/07 03:12:21;;;;;;;6.40;3.90;;;18.10;99.90;;;;;;5071693;28;20025;-46
2022/09/07 03:14:47;;;;;;;12.50;4.55;;;18.20;99.90;;;;;;5072112;28;20047;-40
2022/09/07 03:17:12;;;;;;;8.40;4.00;;;18.20;99.90;;;;;;5071896;28;20556;-46
2022/09/07 03:19:38;;;;;;;10.02;5.10;;;18.20;99.90;;;;;;5071971;28;20016;-45
2022/09/07 03:22:04;;;;;;;11.40;5.45;;;18.20;99.90;;;;;;5071512;28;20377;-44
2022/09/07 03:24:30;;;;;;;10.82;5.32;;;18.20;99.90;;;;;;5071878;28;20021;-47
2022/09/07 03:26:56;;;;;;;10.18;5.70;;;18.20;99.90;;;;;;5072023;28;20085;-44
2022/09/07 03:29:21;;;;;;;12.00;5.93;;;18.20;99.90;;;;;;5071652;28;20142;-44
2022/09/07 03:31:47;;;;;;;10.00;5.80;;;18.20;99.90;;;;;;5071702;28;20039;-45
2022/09/07 03:34:13;;;;;;;10.32;5.53;;;18.20;99.90;;;;;;5072989;28;20020;-47
2022/09/07 03:36:39;;;;;;;10.80;6.03;;;18.20;99.90;;;;;;5072991;28;20503;-41
2022/09/07 03:39:05;;;;;;;9.35;5.20;;;18.20;99.90;;;;;;5072131;28;20028;-43
2022/09/07 03:41:32;;;;;;;9.75;5.95;;;18.20;99.90;;;;;;5071802;28;20032;-43
2022/09/07 03:44:04;;;;;;;10.43;6.10;;;18.20;99.90;;;;;;5071363;28;20068;-50
2022/09/07 03:46:30;;;;;;;9.43;5.47;;;18.10;99.90;;;;;;5071558;28;20024;-46
2022/09/07 03:48:56;;;;;;;10.82;6.35;;;18.10;99.90;;;;;;5071411;28;20511;-45
2022/09/07 03:51:21;;;;;;;11.18;5.88;;;18.10;99.90;;;;;;5071820;28;20027;-47
2022/09/07 03:53:47;;;;;;;7.68;5.90;;;18.00;99.90;;;;;;5071184;28;20028;-44
2022/09/07 03:56:22;;;;;;;13.40;6.25;;;18.00;99.90;;;;;;5071516;28;20476;-47
2022/09/07 03:58:49;;;;;;;9.63;6.63;;;18.00;99.90;;;;;;5071093;28;20028;-45
2022/09/07 04:01:18;;;;;;;8.35;6.10;;;18.00;99.90;;;;;;5071488;28;20099;-49
2022/09/07 04:03:44;;;;;;;12.82;6.47;;;18.00;99.90;;;;;;5084606;22;20040;-42
2022/09/07 04:06:10;;;;;;;9.00;5.97;;;18.00;99.90;;;;;;5071567;28;20056;-42
2022/09/07 04:08:37;;;;;;;7.65;6.32;;;18.00;99.90;;;;;;5071604;28;20021;-43
2022/09/07 04:11:04;;;;;;;12.98;6.40;;;18.10;99.90;;;;;;5071592;28;20032;-44
2022/09/07 04:13:33;;;;;;;12.45;6.40;;;18.00;99.90;;;;;;5070948;28;20072;-43
2022/09/07 04:15:58;;;;;;;9.13;6.78;;;18.00;99.90;;;;;;5071199;28;20489;-46
2022/09/07 04:18:24;;;;;;;8.40;6.32;;;18.10;99.90;;;;;;5071115;28;20044;-47
2022/09/07 04:20:50;;;;;;;7.22;6.10;;;18.00;99.90;;;;;;5071140;28;20025;-44
2022/09/07 04:23:19;;;;;;;9.18;6.15;;;18.00;99.90;;;;;;5052786;28;20032;-44
2022/09/07 04:25:50;;;;;;;13.23;7.13;;;18.00;99.90;;;;;;5071111;28;20024;-43
2022/09/07 04:28:17;;;;;;;8.68;5.65;;;18.00;99.90;;;;;;5070923;28;20025;-45
2022/09/07 04:30:43;;;;;;;10.88;7.15;;;17.90;99.90;;;;;;5071397;28;20029;-44
2022/09/07 04:33:09;;;;;;;8.38;7.32;;;17.90;99.90;;;;;;5070725;28;20032;-46
2022/09/07 04:35:36;;;;;;;10.15;8.00;;;17.90;99.90;;;;;;5071224;28;20021;-47
2022/09/07 04:38:01;;;;;;;8.95;7.32;;;17.90;99.90;;;;;;5071313;28;20032;-45
2022/09/07 04:40:26;;;;;;;10.75;8.02;;;17.80;99.90;;;;;;5052855;28;20118;-47
2022/09/07 04:42:52;;;;;;;9.40;7.57;;;17.70;99.90;;;;;;5074310;28;20044;-44
2022/09/07 04:45:17;;;;;;;12.18;7.90;;;17.70;99.90;;;;;;5075138;28;20510;-45
2022/09/07 04:47:47;;;;;;;9.13;7.50;;;17.60;99.90;;;;;;5074929;28;20021;-45
2022/09/07 04:50:14;;;;;;;9.68;7.03;;;17.60;99.90;;;;;;5074832;28;20025;-43
2022/09/07 04:52:39;;;;;;;13.75;8.18;;;17.60;99.90;;;;;;5074594;28;20034;-45
2022/09/07 04:55:05;;;;;;;10.95;8.68;;;17.60;99.90;;;;;;5074792;28;20454;-44
2022/09/07 04:57:31;;;;;;;10.10;8.40;;;17.60;99.90;;;;;;5074477;28;20029;-43
2022/09/07 04:59:56;;;;;;;9.25;7.00;;;17.60;99.90;;;;;;5074719;28;20025;-44
2022/09/07 05:02:22;;;;;;;10.90;7.72;;;17.60;99.90;;;;;;5074428;28;20063;-46
2022/09/07 05:04:47;;;;;;;13.40;7.90;;;17.60;99.90;;;;;;5074588;28;20033;-44
2022/09/07 05:07:12;;;;;;;23.42;8.80;;;17.60;99.90;;;;;;5074766;28;20178;-48
2022/09/07 05:09:38;;;;;;;8.55;7.65;;;17.60;99.90;;;;;;5074167;28;20060;-44
2022/09/07 05:12:04;;;;;;;11.15;7.20;;;17.60;99.90;;;;;;5074010;28;20032;-43
2022/09/07 05:14:29;;;;;;;9.63;7.47;;;17.60;99.90;;;;;;5074188;28;20480;-45
2022/09/07 05:16:55;;;;;;;11.23;7.28;;;17.60;99.90;;;;;;5074455;28;20024;-44
2022/09/07 05:19:20;;;;;;;13.10;7.28;;;17.70;99.90;;;;;;5074099;28;20040;-46
2022/09/07 05:21:46;;;;;;;12.52;7.20;;;17.70;99.90;;;;;;5074141;28;20373;-42
2022/09/07 05:24:11;;;;;;;8.68;6.85;;;17.70;99.90;;;;;;5073884;28;20086;-45
2022/09/07 05:26:39;;;;;;;8.45;6.88;;;17.70;99.90;;;;;;5074073;28;20055;-44
2022/09/07 05:29:06;;;;;;;10.10;7.43;;;17.70;99.90;;;;;;5074685;28;20032;-43
2022/09/07 05:31:31;;;;;;;11.07;7.00;;;17.70;99.90;;;;;;5075525;28;20461;-44
2022/09/07 05:33:58;;;;;;;9.60;7.20;;;17.80;99.90;;;;;;5073916;28;20104;-43
2022/09/07 05:36:25;;;;;;;8.00;6.75;;;17.80;99.90;;;;;;5073933;28;20027;-48
2022/09/07 05:38:55;;;;;;;8.85;6.35;;;17.80;99.90;;;;;;5073771;28;20032;-46
2022/09/07 05:41:25;;;;;;;8.57;6.93;;;17.80;99.90;;;;;;5074662;28;20427;-46
2022/09/07 05:43:52;;;;;;;9.02;6.45;;;17.90;99.90;;;;;;5073417;28;20036;-46
2022/09/07 05:46:18;;;;;;;10.07;6.35;;;18.00;99.90;;;;;;5073815;28;20024;-46
2022/09/07 05:48:44;;;;;;;8.93;5.93;;;18.00;99.90;;;;;;5073220;28;20116;-43
2022/09/07 05:51:12;;;;;;;11.20;5.85;;;18.10;99.90;;;;;;5073683;28;20103;-44
2022/09/07 05:53:41;;;;;;;8.88;6.18;;;18.20;99.90;;;;;;5072903;28;20040;-45
2022/09/07 05:56:07;;;;;;;9.00;5.85;;;18.30;99.90;;;;;;5073563;28;20487;-45
2022/09/07 05:58:33;;;;;;;10.48;6.32;;;18.50;99.90;;;;;;5073272;28;20051;-42
2022/09/07 06:01:05;;;;;;;9.20;6.13;;;18.60;99.90;;;;;;5073524;28;20024;-43
2022/09/07 06:03:34;;;;;;;9.63;5.45;;;18.80;99.90;;;;;;5072816;28;20035;-44
2022/09/07 06:06:05;;;;;;;8.35;5.05;;;19.00;99.90;;;;;;5073087;28;20139;-46
2022/09/07 06:08:32;;;;;;;8.65;4.93;;;19.20;99.90;;;;;;5073235;28;20086;-48
2022/09/07 06:11:03;;;;;;;9.43;4.63;;;19.50;99.90;;;;;;5073218;28;20024;-46
2022/09/07 06:13:29;;;;;;;9.52;5.30;;;19.70;99.90;;;;;;5072511;28;20503;-45
2022/09/07 06:15:59;;;;;;;6.47;4.80;;;19.80;99.90;;;;;;5073028;28;20074;-44
2022/09/07 06:18:31;;;;;;;7.68;5.35;;;19.90;99.90;;;;;;5072965;28;20046;-44
2022/09/07 06:21:05;;;;;;;7.43;5.28;;;20.10;99.90;;;;;;5072952;28;20025;-45
2022/09/07 06:23:31;;;;;;;11.27;5.18;;;20.40;99.90;;;;;;5072563;28;20538;-44
2022/09/07 06:25:57;;;;;;;7.25;4.95;;;20.80;99.90;;;;;;5072829;28;20020;-44
2022/09/07 06:28:30;;;;;;;8.93;4.93;;;21.60;99.90;;;;;;5072759;28;20036;-45
2022/09/07 06:31:17;;;;;;;10.93;5.22;;;22.40;99.90;;;;;;5072901;28;20027;-43
2022/09/07 06:33:44;;;;;;;4.63;4.00;;;23.00;99.90;;;;;;5072236;28;20052;-46
2022/09/07 06:36:14;;;;;;;8.77;4.60;;;24.00;99.90;;;;;;5073042;28;20488;-47
2022/09/07 06:38:40;;;;;;;14.57;5.50;;;24.80;99.90;;;;;;5072573;28;20032;-44
2022/09/07 06:41:11;;;;;;;13.73;4.03;;;25.60;99.90;;;;;;5072892;28;20495;-45
2022/09/07 06:43:37;;;;;;;8.05;3.63;;;26.40;99.90;;;;;;5072718;28;20119;-41
2022/09/07 06:46:03;;;;;;;8.98;4.10;;;27.00;99.90;;;;;;5072818;28;20025;-43
2022/09/07 06:48:29;;;;;;;9.10;4.28;;;27.50;99.90;;;;;;5072902;28;20157;-44
2022/09/07 06:51:03;;;;;;;8.60;3.60;;;28.00;99.70;;;;;;5073001;28;20103;-42
2022/09/07 06:53:31;;;;;;;7.73;5.00;;;28.20;99.90;;;;;;5072157;28;20044;-44
2022/09/07 06:55:57;;;;;;;5.75;3.95;;;28.50;98.60;;;;;;5072782;28;20354;-44
2022/09/07 06:58:24;;;;;;;6.43;3.58;;;28.50;98.60;;;;;;5072200;28;20166;-47
2022/09/07 07:00:50;;;;;;;10.05;5.55;;;28.50;98.00;;;;;;5072523;28;20028;-45
2022/09/07 07:03:16;;;;;;;6.50;3.55;;;28.50;98.00;;;;;;5071747;28;20033;-46
2022/09/07 07:05:48;;;;;;;10.85;3.67;;;28.10;98.30;;;;;;5071812;28;20028;-47
2022/09/07 07:08:14;;;;;;;8.57;3.25;;;27.70;98.90;;;;;;5072097;28;20024;-46
2022/09/07 07:10:39;;;;;;;6.03;3.20;;;27.70;99.10;;;;;;5072500;28;20031;-43
2022/09/07 07:13:05;;;;;;;9.15;3.85;;;27.90;99.50;;;;;;5072129;28;20025;-48
2022/09/07 07:15:30;;;;;;;3.38;2.83;;;28.40;98.70;;;;;;5072051;28;20107;-47
2022/09/07 07:17:56;;;;;;;6.25;3.45;;;28.70;98.40;;;;;;5072150;28;20025;-45
2022/09/07 07:20:22;;;;;;;5.63;3.42;;;28.60;97.80;;;;;;5071949;28;20021;-44
2022/09/07 07:22:51;;;;;;;6.75;3.83;;;28.10;98.70;;;;;;5071244;28;20035;-46
2022/09/07 07:25:17;;;;;;;7.20;4.32;;;27.80;99.50;;;;;;5071782;28;20035;-44
2022/09/07 07:27:44;;;;;;;5.80;3.30;;;28.00;99.10;;;;;;5071961;28;20059;-44
2022/09/07 07:30:11;;;;;;;10.77;4.85;;;28.30;99.10;;;;;;5071740;28;20103;-46
2022/09/07 07:32:37;;;;;;;6.07;3.42;;;28.80;98.60;;;;;;5071253;28;20031;-43
2022/09/07 07:35:02;;;;;;;7.75;3.70;;;29.40;97.70;;;;;;5071485;28;20028;-48
2022/09/07 07:37:28;;;;;;;4.43;3.25;;;29.90;97.00;;;;;;5071768;28;20055;-46
2022/09/07 07:39:53;;;;;;;11.35;5.15;;;30.30;96.50;;;;;;5071534;28;20143;-45
2022/09/07 07:42:19;;;;;;;6.18;3.25;;;30.60;95.70;;;;;;5071430;28;20027;-49
2022/09/07 07:44:44;;;;;;;7.97;3.70;;;30.70;95.00;;;;;;5071343;28;20440;-43
2022/09/07 07:47:10;;;;;;;7.72;4.43;;;30.70;95.60;;;;;;5053534;28;20020;-46
2022/09/07 07:49:35;;;;;;;8.63;4.53;;;30.60;95.40;;;;;;5071434;28;20028;-46
2022/09/07 07:52:01;;;;;;;10.95;4.72;;;30.60;94.90;;;;;;5071193;28;20392;-43
2022/09/07 07:54:26;;;;;;;6.28;3.72;;;30.50;95.10;;;;;;5071616;28;20029;-46
2022/09/07 07:56:52;;;;;;;6.40;4.38;;;30.80;95.00;;;;;;5071716;28;20052;-45
2022/09/07 07:59:17;;;;;;;6.68;3.42;;;30.50;95.00;;;;;;5071010;28;20039;-44
2022/09/07 08:01:43;;;;;;;4.00;2.90;;;30.10;95.50;;;;;;5071184;28;20036;-44
2022/09/07 08:04:08;;;;;;;4.65;3.08;;;29.80;96.20;;;;;;5071080;28;20127;-42
2022/09/07 08:06:33;;;;;;;12.25;2.95;;;30.00;95.70;;;;;;5071660;28;20024;-45
2022/09/07 08:08:59;;;;;;;6.85;3.17;;;30.30;95.60;;;;;;5071544;28;20074;-44
2022/09/07 08:11:25;;;;;;;7.18;3.30;;;30.00;95.80;;;;;;5071453;28;20024;-44
2022/09/07 08:13:51;;;;;;;5.82;2.42;;;29.70;96.50;;;;;;5071095;28;20413;-44
2022/09/07 08:16:17;;;;;;;4.68;2.80;;;29.60;96.30;;;;;;5072748;28;20021;-44
2022/09/07 08:18:44;;;;;;;7.10;2.70;;;29.20;96.70;;;;;;5075640;28;20078;-48
2022/09/07 08:21:12;;;;;;;5.22;3.05;;;28.60;97.50;;;;;;5075726;28;20029;-45
2022/09/07 08:23:38;;;;;;;5.22;2.25;;;28.00;98.90;;;;;;5075178;28;20028;-45
2022/09/07 08:26:05;;;;;;;3.15;2.38;;;27.30;99.40;;;;;;5075474;28;20036;-45
2022/09/07 08:28:34;;;;;;;6.93;2.58;;;26.60;99.90;;;;;;5075175;28;20443;-43
2022/09/07 08:31:04;;;;;;;3.00;1.98;;;26.10;99.90;;;;;;5075362;28;20101;-43
2022/09/07 08:33:30;;;;;;;5.03;2.08;;;25.80;99.90;;;;;;5074712;28;20048;-44
2022/09/07 08:35:58;;;;;;;4.57;2.67;;;26.10;99.90;;;;;;5074893;28;20105;-43
2022/09/07 08:38:24;;;;;;;3.38;2.13;;;27.00;99.90;;;;;;5074873;28;20020;-44
2022/09/07 08:40:50;;;;;;;9.52;2.20;;;28.30;99.90;;;;;;5074978;28;20481;-41
2022/09/07 08:43:25;;;;;;;5.15;2.75;;;29.20;98.00;;;;;;5074584;28;20044;-46
2022/09/07 08:45:56;;;;;;;5.95;1.83;;;29.90;96.80;;;;;;5074987;28;20175;-44
2022/09/07 08:48:30;;;;;;;3.88;2.05;;;29.90;96.60;;;;;;5074944;28;20036;-44
2022/09/07 08:51:26;;;;;;;3.80;1.98;;;30.20;95.90;;;;;;5075100;28;20039;-48
2022/09/07 08:53:52;;;;;;;3.80;2.03;;;30.50;95.60;;;;;;5072891;28;20036;-49
2022/09/07 08:56:32;;;;;;;3.05;1.40;;;30.70;96.10;;;;;;5074864;28;20396;-44
2022/09/07 08:59:01;;;;;;;3.15;1.40;;;31.20;95.10;;;;;;5074000;28;20025;-46
2022/09/07 09:01:31;;;;;;;7.32;2.45;;;31.50;94.40;;;;;;5074485;28;20472;-44
2022/09/07 09:03:57;;;;;;;4.20;1.60;;;31.60;94.70;;;;;;5073978;28;20040;-48
2022/09/07 09:06:43;;;;;;;1.98;1.80;;;31.50;93.80;;;;;;5074496;28;20036;-45
2022/09/07 09:09:36;;;;;;;5.15;2.03;;;31.10;93.90;;;;;;5074332;28;20397;-45
2022/09/07 09:12:25;;;;;;;6.70;1.40;;;30.20;95.30;;;;;;5074170;28;20466;-48
2022/09/07 09:15:16;;;;;;;4.68;1.80;;;29.30;96.90;;;;;;5074332;28;20028;-42
2022/09/07 09:17:47;;;;;;;5.38;1.80;;;28.60;97.80;;;;;;5074338;28;20027;-44
2022/09/07 09:20:30;;;;;;;3.45;2.50;;;27.80;99.10;;;;;;5074719;28;20376;-49
2022/09/07 09:23:12;;;;;;;5.70;1.95;;;27.90;99.60;;;;;;5073558;28;20420;-44
2022/09/07 09:25:48;;;;;;;3.97;1.77;;;28.40;99.40;;;;;;5074299;28;20059;-45
2022/09/07 09:28:14;;;;;;;4.35;1.73;;;28.80;98.50;;;;;;5073590;28;20035;-44
2022/09/07 09:30:40;;;;;;;3.65;1.77;;;28.90;98.50;;;;;;5074026;28;20032;-43
2022/09/07 09:33:21;;;;;;;7.10;2.08;;;28.60;98.40;;;;;;5073811;28;20203;-43
2022/09/07 09:35:49;;;;;;;11.75;2.22;;;28.30;98.40;;;;;;5074267;28;20024;-45
2022/09/07 09:38:43;;;;;;;2.90;1.60;;;28.20;99.10;;;;;;5073660;28;20396;-43
2022/09/07 09:41:12;;;;;;;3.60;2.00;;;28.20;98.80;;;;;;5071301;28;20040;-46
2022/09/07 09:43:56;;;;;;;8.02;2.03;;;28.30;98.70;;;;;;5073622;28;20028;-44
2022/09/07 09:46:32;;;;;;;6.72;2.88;;;28.00;98.90;;;;;;5073943;28;20104;-45
2022/09/07 09:49:25;;;;;;;3.45;1.83;;;27.60;99.80;;;;;;5073687;28;20020;-47
2022/09/07 09:51:55;;;;;;;7.75;1.65;;;27.60;99.40;;;;;;5072607;28;20060;-44
2022/09/07 09:54:26;;;;;;;4.85;1.60;;;27.90;99.30;;;;;;5073527;28;20021;-45
2022/09/07 09:56:52;;;;;;;3.25;1.70;;;28.30;97.90;;;;;;5073461;28;20017;-43
2022/09/07 09:59:20;;;;;;;4.15;1.52;;;28.50;97.60;;;;;;5072876;28;20046;-47
2022/09/07 10:01:46;;;;;;;6.55;1.85;;;28.70;98.00;;;;;;5073053;28;20407;-47
2022/09/07 10:04:29;;;;;;;4.22;1.52;;;28.80;98.10;;;;;;5094378;22;20428;-48
2022/09/07 10:07:26;;;;;;;4.65;2.88;;;28.70;98.30;;;;;;5073361;28;20051;-45
2022/09/07 10:09:54;;;;;;;7.43;1.70;;;28.50;97.90;;;;;;5073217;28;20511;-49
2022/09/07 10:12:25;;;;;;;5.53;1.70;;;28.10;98.70;;;;;;5072890;28;20024;-43
2022/09/07 10:14:52;;;;;;;2.40;1.30;;;27.90;98.70;;;;;;5073175;28;20507;-48
2022/09/07 10:17:31;;;;;;;9.40;2.10;;;27.40;98.80;;;;;;5055173;28;20039;-45
2022/09/07 10:20:00;;;;;;;5.38;1.40;;;27.00;99.60;;;;;;5073191;28;20070;-48
2022/09/07 10:22:31;;;;;;;7.80;1.77;;;26.60;99.90;;;;;;5072670;28;20025;-47
2022/09/07 10:24:57;;;;;;;8.10;1.80;;;26.50;99.90;;;;;;5072877;28;20021;-44
2022/09/07 10:27:37;;;;;;;4.82;1.48;;;26.60;99.90;;;;;;5072879;28;20029;-44
2022/09/07 10:30:12;;;;;;;4.97;1.40;;;26.70;99.90;;;;;;5072798;28;20492;-45
2022/09/07 10:32:47;;;;;;;;;;;26.70;99.90;;;;;;5072782;28;20119;-46
2022/09/07 10:35:33;;;;;;;4.57;1.80;;;26.70;99.80;;;;;;5054557;28;20422;-44
2022/09/07 10:38:15;;;;;;;4.28;1.55;;;26.90;99.80;;;;;;5072715;28;20039;-43
2022/09/07 10:41:04;;;;;;;5.18;1.92;;;26.80;99.10;;;;;;5072226;28;20024;-45
2022/09/07 10:43:44;;;;;;;3.97;1.67;;;26.70;99.90;;;;;;5072162;28;20028;-44
2022/09/07 10:46:25;;;;;;;6.15;2.60;;;26.80;99.90;;;;;;5072481;28;20112;-47
2022/09/07 10:49:09;;;;;;;6.72;2.08;;;26.60;99.90;;;;;;5072303;28;20107;-43
2022/09/07 10:51:51;;;;;;;4.45;1.92;;;26.70;99.90;;;;;;5072270;28;20060;-43
2022/09/07 10:54:33;;;;;;;5.43;2.10;;;26.80;99.90;;;;;;5072963;28;20488;-46
2022/09/07 10:57:17;;;;;;;5.90;2.08;;;26.70;99.90;;;;;;5073681;28;20063;-47
2022/09/07 10:59:59;;;;;;;4.03;1.98;;;26.60;99.90;;;;;;5072640;28;20078;-48
2022/09/07 11:02:43;;;;;;;6.32;2.35;;;26.70;99.90;;;;;;5072307;28;20071;-48
2022/09/07 11:05:46;;;;;;;5.80;2.10;;;26.70;99.90;;;;;;5072581;28;20037;-48
2022/09/07 11:08:51;;;;;;;5.50;2.50;;;26.60;99.90;;;;;;5072168;28;20087;-43
2022/09/07 11:11:27;;;;;;;5.95;1.67;;;26.50;99.90;;;;;;5054395;28;20055;-45
2022/09/07 11:14:01;;;;;;;4.53;1.90;;;26.50;99.90;;;;;;5071681;28;20510;-46
2022/09/07 11:16:32;;;;;;;15.63;2.00;;;26.40;99.90;;;;;;5072094;28;20027;-44
2022/09/07 11:19:04;;;;;;;3.83;1.60;;;26.50;99.90;;;;;;5071968;28;20035;-45
2022/09/07 11:21:37;;;;;;;5.32;1.95;;;26.40;99.90;;;;;;5072182;28;20392;-45
2022/09/07 11:24:12;;;;;;;3.67;1.67;;;26.40;99.90;;;;;;5071813;28;20484;-45
2022/09/07 11:26:56;;;;;;;4.00;2.00;;;26.30;99.90;;;;;;5072417;28;20060;-47
2022/09/07 11:29:42;;;;;;;2.90;1.50;;;26.30;99.90;;;;;;5071925;28;20095;-51
2022/09/07 11:32:16;;;;;;;3.85;1.98;;;26.30;99.90;;;;;;5071715;28;20029;-45
2022/09/07 11:34:51;;;;;;;3.47;1.73;;;26.20;99.90;;;;;;5071798;28;20021;-43
2022/09/07 11:37:32;;;;;;;6.00;1.70;;;26.20;99.90;;;;;;5071754;28;20095;-45
2022/09/07 11:40:00;;;;;;;2.10;1.60;;;26.20;99.90;;;;;;5071633;28;20013;-43
2022/09/07 11:42:47;;;;;;;7.25;1.60;;;26.30;99.90;;;;;;5071456;28;20108;-45
2022/09/07 11:45:25;;;;;;;8.32;1.67;;;26.40;99.90;;;;;;5071584;28;20487;-44
2022/09/07 11:48:06;;;;;;;2.58;1.70;;;26.30;99.90;;;;;;5071602;28;20399;-44
2022/09/07 11:50:38;;;;;;;8.10;2.08;;;26.40;99.90;;;;;;5071534;28;20053;-43
2022/09/07 11:53:15;;;;;;;4.30;2.33;;;26.50;99.90;;;;;;5071357;28;20103;-43
2022/09/07 11:55:44;;;;;;;7.10;2.38;;;26.60;99.90;;;;;;5071623;28;20020;-44
2022/09/07 11:58:51;;;;;;;3.10;1.60;;;26.70;99.40;;;;;;5070955;28;20024;-44
2022/09/07 12:01:41;;;;;;;3.78;1.80;;;26.70;99.30;;;;;;5033652;28;20032;-45
2022/09/07 12:04:28;;;;;;;5.40;2.55;;;26.60;99.90;;;;;;5071204;28;20089;-47
2022/09/07 12:07:29;;;;;;;3.05;1.63;;;26.60;99.90;;;;;;5071518;28;20051;-43
2022/09/07 12:10:05;;;;;;;4.43;1.70;;;26.60;99.60;;;;;;5071361;28;20103;-45
2022/09/07 12:12:49;;;;;;;4.63;2.15;;;26.40;99.90;;;;;;5071051;28;20032;-44
2022/09/07 12:15:33;;;;;;;2.97;1.73;;;26.30;99.80;;;;;;5071354;28;20017;-45
2022/09/07 12:18:17;;;;;;;4.83;1.77;;;26.30;99.90;;;;;;5071915;28;20460;-43
2022/09/07 12:20:46;;;;;;;5.23;1.70;;;26.30;99.90;;;;;;5071529;28;20027;-43
2022/09/07 12:23:14;;;;;;;2.47;1.40;;;26.40;99.60;;;;;;5071060;28;20035;-47
2022/09/07 12:25:41;;;;;;;1.90;1.42;;;26.50;99.90;;;;;;5071503;28;20036;-44
2022/09/07 12:28:17;;;;;;;2.15;1.30;;;26.60;99.40;;;;;;5053508;28;20488;-43
2022/09/07 12:31:03;;;;;;;3.72;2.00;;;26.70;98.20;;;;;;5071893;28;20039;-45
2022/09/07 12:33:34;;;;;;;3.15;1.55;;;26.80;97.90;;;;;;5071321;28;20559;-45
2022/09/07 12:36:00;;;;;;;2.90;1.50;;;26.90;96.80;;;;;;5072032;28;20032;-47
2022/09/07 12:38:29;;;;;;;6.55;1.52;;;26.90;97.50;;;;;;5071057;28;20027;-43
2022/09/07 12:41:03;;;;;;;6.20;2.25;;;26.80;97.40;;;;;;5071318;28;20425;-47
2022/09/07 12:43:34;;;;;;;2.33;1.40;;;26.80;96.20;;;;;;5071141;28;20032;-45
2022/09/07 12:46:00;;;;;;;4.90;1.40;;;26.80;96.00;;;;;;5071256;28;20020;-40
2022/09/07 12:48:45;;;;;;;5.18;1.40;;;26.80;96.60;;;;;;5070972;28;20445;-45
2022/09/07 12:51:29;;;;;;;7.00;1.63;;;26.80;96.90;;;;;;5053163;28;20055;-44
2022/09/07 12:54:21;;;;;;;4.70;1.40;;;26.70;97.70;;;;;;5071341;28;20379;-45
2022/09/07 12:56:57;;;;;;;2.17;1.13;;;26.70;97.00;;;;;;5071777;28;20040;-45
2022/09/07 12:59:44;;;;;;;2.17;1.27;;;26.70;96.70;;;;;;5070625;28;20103;-39
2022/09/07 13:02:28;;;;;;;4.40;1.50;;;26.60;96.90;;;;;;5071490;28;20107;-39
2022/09/07 13:05:22;;;;;;;3.35;1.73;;;26.60;97.60;;;;;;5074418;28;20029;-47
2022/09/07 13:08:18;;;;;;;4.55;1.50;;;26.60;97.60;;;;;;5074537;28;20095;-45
2022/09/07 13:10:46;;;;;;;3.92;1.63;;;26.70;96.60;;;;;;5074557;28;20419;-45